createdAt,value
2023-01-29T00:03:20.981Z,11.07
2023-01-29T00:05:50.957Z,17.6
2023-01-29T00:08:20.998Z,14.39
2023-01-29T00:10:51.025Z,12.15
2023-01-29T00:13:21.063Z,10.99
2023-01-29T00:15:51.096Z,11.49
2023-01-29T00:18:21.128Z,14.07
2023-01-29T00:20:51.111Z,13.08
2023-01-29T00:23:21.291Z,14.29
2023-01-29T00:25:51.191Z,14.17
2023-01-29T00:28:21.216Z,15.49
2023-01-29T00:30:51.230Z,13.32
2023-01-29T00:33:21.233Z,12.04
2023-01-29T00:35:51.298Z,11.8
2023-01-29T00:38:21.280Z,11.71
2023-01-29T00:40:51.305Z,10.28
2023-01-29T00:43:21.331Z,11.35
2023-01-29T00:50:51.403Z,13.33
2023-01-29T00:53:21.667Z,12.88
2023-01-29T00:55:51.436Z,11.36
2023-01-29T00:58:21.482Z,13.39
2023-01-29T01:00:51.541Z,12.88
2023-01-29T01:03:21.517Z,14.18
2023-01-29T01:08:21.574Z,10.47
2023-01-29T01:10:51.578Z,13.21
2023-01-29T01:13:21.651Z,13.21
2023-01-29T01:15:51.636Z,11.82
2023-01-29T01:18:21.640Z,12.42
2023-01-29T01:20:51.716Z,14.32
2023-01-29T01:23:21.862Z,14.05
2023-01-29T01:25:51.849Z,13.41
2023-01-29T01:28:21.768Z,10.84
2023-01-29T01:30:51.871Z,11.46
2023-01-29T01:33:21.805Z,10.21
2023-01-29T01:35:51.840Z,10.45
2023-01-29T01:38:21.843Z,14.16
2023-01-29T01:40:51.872Z,15.31
2023-01-29T01:43:21.907Z,13.33
2023-01-29T01:45:52.101Z,12.36
2023-01-29T01:50:51.967Z,10.89
2023-01-29T01:53:22.000Z,10.28
2023-01-29T01:55:52.034Z,11.88
2023-01-29T01:58:22.097Z,11.22
2023-01-29T02:00:52.090Z,11.39
2023-01-29T02:03:22.099Z,10.68
2023-01-29T02:05:52.168Z,11.05
2023-01-29T02:08:22.147Z,12.87
2023-01-29T02:10:52.184Z,12.48
2023-01-29T02:13:22.189Z,11.32
2023-01-29T02:15:52.213Z,14.52
2023-01-29T02:18:22.240Z,13.6
2023-01-29T02:20:52.258Z,16.54
2023-01-29T02:23:22.272Z,13.43
2023-01-29T02:25:52.328Z,14.18
2023-01-29T02:30:52.382Z,13.94
2023-01-29T02:33:22.368Z,14.18
2023-01-29T02:35:52.422Z,13.12
2023-01-29T02:38:22.445Z,12.81
2023-01-29T02:40:52.442Z,17.55
2023-01-29T02:43:22.469Z,15.71
2023-01-29T02:45:52.540Z,14.77
2023-01-29T02:50:52.532Z,13.13
2023-01-29T02:53:22.626Z,13.54
2023-01-29T02:55:52.583Z,13.09
2023-01-29T02:58:22.647Z,13.06
2023-01-29T03:00:52.675Z,10.99
2023-01-29T03:03:22.657Z,13.37
2023-01-29T03:08:22.730Z,10.75
2023-01-29T03:10:52.738Z,11.65
2023-01-29T03:13:22.746Z,11.26
2023-01-29T03:15:52.771Z,12.37
2023-01-29T03:18:22.807Z,12.2
2023-01-29T03:23:22.887Z,17.54
2023-01-29T03:25:52.885Z,14.05
2023-01-29T03:28:22.900Z,13.54
2023-01-29T03:30:52.935Z,12.28
2023-01-29T03:33:22.923Z,14.93
2023-01-29T03:35:52.970Z,14.98
2023-01-29T03:38:23.004Z,14.06
2023-01-29T03:43:23.034Z,15.5
2023-01-29T03:45:53.134Z,13.8
2023-01-29T03:48:23.097Z,14.97
2023-01-29T03:50:53.129Z,15.08
2023-01-29T03:55:53.160Z,15.51
2023-01-29T03:58:23.186Z,14.38
2023-01-29T04:00:53.181Z,15.26
2023-01-29T04:03:23.227Z,17.51
2023-01-29T04:05:53.247Z,14.89
2023-01-29T04:08:23.285Z,13.71
2023-01-29T04:10:53.305Z,14.17
2023-01-29T04:13:23.321Z,14.9
2023-01-29T04:15:53.370Z,12.34
2023-01-29T04:18:23.373Z,12.05
2023-01-29T04:20:53.394Z,14.14
2023-01-29T04:23:23.435Z,13.13
2023-01-29T04:25:53.455Z,13.54
2023-01-29T04:30:53.674Z,10
2023-01-29T04:33:23.544Z,13.55
2023-01-29T04:35:53.554Z,13.56
2023-01-29T04:38:23.562Z,13.73
2023-01-29T04:40:53.578Z,14.29
2023-01-29T04:43:23.631Z,12.99
2023-01-29T04:45:53.632Z,14.92
2023-01-29T04:53:23.735Z,14.29
2023-01-29T04:55:53.711Z,15.68
2023-01-29T04:58:23.756Z,12.12
2023-01-29T05:00:53.782Z,13.07
2023-01-29T05:03:23.795Z,12.88
2023-01-29T05:05:53.946Z,12.74
2023-01-29T05:08:23.866Z,13.17
2023-01-29T05:10:53.903Z,11.02
2023-01-29T05:15:53.968Z,14.02
2023-01-29T05:18:23.921Z,11.7
2023-01-29T05:20:53.956Z,14.58
2023-01-29T05:23:24.029Z,13.03
2023-01-29T05:25:54.015Z,17.25
2023-01-29T05:28:24.043Z,15.96
2023-01-29T05:30:54.085Z,16.74
2023-01-29T05:33:24.092Z,16.51
2023-01-29T05:35:54.115Z,13.78
2023-01-29T05:38:24.137Z,17.32
2023-01-29T05:40:54.148Z,13.91
2023-01-29T05:43:24.180Z,12.41
2023-01-29T05:45:54.213Z,18
2023-01-29T05:48:24.261Z,15.92
2023-01-29T05:50:54.250Z,16.75
2023-01-29T05:53:24.293Z,15.06
2023-01-29T05:55:54.299Z,15.14
2023-01-29T05:58:24.323Z,14.86
2023-01-29T06:00:54.333Z,16.86
2023-01-29T06:03:24.371Z,15.65
2023-01-29T06:08:24.414Z,16.54
2023-01-29T06:10:54.481Z,13.92
2023-01-29T06:13:24.505Z,15.03
2023-01-29T06:15:54.529Z,18.66
2023-01-29T06:18:24.495Z,17.01
2023-01-29T06:20:54.547Z,14.36
2023-01-29T06:23:24.567Z,17.33
2023-01-29T06:25:54.573Z,20.37
2023-01-29T06:35:54.739Z,17.79
2023-01-29T06:38:24.744Z,17.96
2023-01-29T06:40:54.724Z,16.84
2023-01-29T06:43:24.771Z,17.85
2023-01-29T06:45:54.844Z,17.12
2023-01-29T06:53:24.852Z,17.07
2023-01-29T06:55:54.887Z,19.84
2023-01-29T07:00:55.013Z,14.27
2023-01-29T07:03:24.945Z,16.57
2023-01-29T07:05:54.971Z,15.15
2023-01-29T07:08:24.988Z,19.22
2023-01-29T07:10:55.020Z,21.26
2023-01-29T07:13:25.035Z,22.01
2023-01-29T07:15:55.203Z,18.58
2023-01-29T07:18:25.094Z,22.84
2023-01-29T07:20:55.154Z,19.95
2023-01-29T07:23:25.113Z,21.81
2023-01-29T07:25:55.158Z,16.6
2023-01-29T07:28:25.186Z,16.55
2023-01-29T07:30:55.235Z,17.5
2023-01-29T07:33:25.212Z,17.02
2023-01-29T07:38:25.260Z,13.06
2023-01-29T07:40:55.307Z,13.65
2023-01-29T07:43:25.338Z,15.91
2023-01-29T07:45:55.410Z,15.12
2023-01-29T07:50:55.517Z,15.95
2023-01-29T07:53:25.414Z,15.8
2023-01-29T07:55:55.499Z,15.84
2023-01-29T07:58:25.466Z,14.75
2023-01-29T08:00:55.555Z,15.91
2023-01-29T08:03:25.530Z,22.6
2023-01-29T08:05:55.532Z,18.21
2023-01-29T08:08:25.595Z,15.33
2023-01-29T08:10:55.573Z,16.45
2023-01-29T08:13:25.630Z,17.64
2023-01-29T08:15:55.618Z,15.15
2023-01-29T08:18:25.646Z,15.42
2023-01-29T08:20:55.689Z,15.59
2023-01-29T08:23:25.720Z,15.07
2023-01-29T08:25:55.780Z,13.91
2023-01-29T08:33:37.956Z,16.59
2023-01-29T08:38:25.866Z,19.3
2023-01-29T08:40:55.861Z,15.17
2023-01-29T08:43:25.904Z,15.44
2023-01-29T08:50:55.948Z,13.47
2023-01-29T08:53:26.000Z,11.18
2023-01-29T08:55:56.052Z,12.37
2023-01-29T08:58:26.048Z,12.85
2023-01-29T09:00:56.243Z,13.59
2023-01-29T09:05:56.127Z,15.29
2023-01-29T09:08:26.131Z,16.07
2023-01-29T09:13:26.179Z,15.21
2023-01-29T09:15:57.387Z,12.87
2023-01-29T09:18:26.228Z,13.68
2023-01-29T09:23:26.270Z,15.66
2023-01-29T09:25:56.290Z,17.11
2023-01-29T09:28:26.331Z,14.61
2023-01-29T09:33:26.370Z,12.19
2023-01-29T09:35:56.400Z,11.82
2023-01-29T09:38:26.419Z,12.41
2023-01-29T09:40:56.431Z,17.55
2023-01-29T09:43:26.480Z,15.63
2023-01-29T09:45:56.512Z,13.98
2023-01-29T09:50:56.535Z,13.73
2023-01-29T09:53:26.577Z,12.32
2023-01-29T09:58:26.590Z,15.07
2023-01-29T10:03:26.661Z,13.38
2023-01-29T10:05:56.735Z,13.44
2023-01-29T10:08:26.714Z,11.03
2023-01-29T10:13:26.748Z,13.33
2023-01-29T10:15:56.791Z,13.19
2023-01-29T10:18:26.799Z,15.98
2023-01-29T10:20:56.839Z,13.96
2023-01-29T10:23:26.995Z,12.84
2023-01-29T10:25:56.881Z,12.85
2023-01-29T10:28:26.895Z,12.15
2023-01-29T10:33:26.941Z,11.63
2023-01-29T10:35:56.982Z,11.01
2023-01-29T10:38:26.983Z,12.11
2023-01-29T10:48:27.077Z,15.23
2023-01-29T10:50:57.110Z,14.19
2023-01-29T10:53:27.117Z,12.48
2023-01-29T10:55:57.163Z,9.55
2023-01-29T10:58:27.179Z,15.16
2023-01-29T11:03:28.636Z,26.09
2023-01-29T11:05:57.290Z,18.25
2023-01-29T11:08:27.272Z,13.38
2023-01-29T11:10:57.298Z,19.23
2023-01-29T11:13:27.317Z,15.57
2023-01-29T11:23:27.410Z,12.91
2023-01-29T11:25:57.442Z,8.5
2023-01-29T11:28:27.483Z,13.06
2023-01-29T11:30:57.590Z,14.22
2023-01-29T11:35:57.548Z,12.91
2023-01-29T11:40:57.585Z,12.25
2023-01-29T11:43:27.604Z,16.66
2023-01-29T11:50:57.669Z,12.46
2023-01-29T11:53:27.707Z,11.47
2023-01-29T11:55:57.709Z,12.09
2023-01-29T12:00:57.775Z,14.02
2023-01-29T12:03:27.825Z,16.36
2023-01-29T12:05:57.875Z,14.97
2023-01-29T12:10:57.851Z,11.45
2023-01-29T12:13:27.869Z,10.63
2023-01-29T12:15:57.989Z,12.3
2023-01-29T12:18:27.925Z,14.04
2023-01-29T12:20:57.957Z,15.29
2023-01-29T12:23:27.983Z,14.64
2023-01-29T12:28:28.031Z,18.05
2023-01-29T12:33:28.102Z,15.57
2023-01-29T12:35:58.104Z,18.56
2023-01-29T12:38:28.144Z,13.55
2023-01-29T12:40:58.130Z,12.71
2023-01-29T12:43:28.173Z,14.28
2023-01-29T12:53:28.277Z,19.67
2023-01-29T13:00:58.375Z,20.16
2023-01-29T13:03:28.473Z,18.76
2023-01-29T13:05:58.419Z,18.62
2023-01-29T13:08:28.400Z,15.88
2023-01-29T13:15:58.462Z,18.79
2023-01-29T13:18:28.517Z,17.01
2023-01-29T13:23:28.565Z,17.35
2023-01-29T13:25:58.557Z,20.21
2023-01-29T13:28:28.605Z,24.13
2023-01-29T13:40:58.734Z,18.43
2023-01-29T13:43:28.734Z,21.51
2023-01-29T13:45:58.795Z,17.89
2023-01-29T13:50:58.810Z,24.51
2023-01-29T13:53:28.964Z,24.16
2023-01-29T13:55:58.872Z,29.92
2023-01-29T13:58:28.889Z,32.04
2023-01-29T14:00:58.943Z,26.76
2023-01-29T14:03:39.922Z,21.81
2023-01-29T14:05:58.947Z,23.75
2023-01-29T14:08:28.979Z,24.59
2023-01-29T14:13:29.034Z,18.22
2023-01-29T14:18:29.080Z,19.81
2023-01-29T14:20:59.129Z,19.39
2023-01-29T14:25:59.157Z,22.2
2023-01-29T14:33:29.209Z,20.33
2023-01-29T14:38:29.269Z,20.3
2023-01-29T14:43:29.296Z,20.77
2023-01-29T14:45:59.393Z,19.31
2023-01-29T14:53:29.404Z,22.24
2023-01-29T14:55:59.422Z,18.21
2023-01-29T14:58:29.471Z,17.77
2023-01-29T15:05:59.510Z,17.18
2023-01-29T15:08:29.563Z,21.27
2023-01-29T15:18:29.632Z,24.06
2023-01-29T15:20:59.686Z,19.76
2023-01-29T15:25:59.738Z,17.82
2023-01-29T15:28:29.724Z,18.31
2023-01-29T15:30:59.836Z,18.39
2023-01-29T15:36:07.368Z,18.26
2023-01-29T15:43:29.888Z,21.41
2023-01-29T15:45:59.916Z,18.51
2023-01-29T15:50:59.957Z,20.38
2023-01-29T15:53:29.986Z,23.08
2023-01-29T15:56:00.027Z,18.16
2023-01-29T15:58:30.035Z,20.41
2023-01-29T16:01:00.040Z,17.23
2023-01-29T16:06:07.127Z,17.01
2023-01-29T16:08:30.145Z,18.99
2023-01-29T16:11:00.184Z,18.39
2023-01-29T16:13:30.163Z,20.68
2023-01-29T16:18:30.206Z,18.2
2023-01-29T16:23:30.264Z,19.81
2023-01-29T16:26:00.292Z,15.9
2023-01-29T16:28:30.296Z,17.2
2023-01-29T16:36:00.398Z,22.19
2023-01-29T16:38:30.390Z,20.53
2023-01-29T16:41:00.439Z,18.04
2023-01-29T16:43:37.481Z,20.13
2023-01-29T16:53:30.528Z,18.94
2023-01-29T16:56:00.574Z,20.89
2023-01-29T16:58:30.619Z,20.87
2023-01-29T17:01:00.657Z,18.54
2023-01-29T17:08:30.719Z,20.7
2023-01-29T17:11:00.712Z,15.35
2023-01-29T17:16:07.839Z,15.47
2023-01-29T17:26:00.882Z,19.8
2023-01-29T17:31:06.647Z,21
2023-01-29T17:36:01.001Z,21.67
2023-01-29T17:38:31.078Z,17.73
2023-01-29T17:41:01.003Z,22.32
2023-01-29T17:43:31.041Z,21.77
2023-01-29T17:51:01.122Z,21.37
2023-01-29T17:53:45.261Z,22.59
2023-01-29T17:56:01.173Z,18.79
2023-01-29T18:03:31.272Z,18.95
2023-01-29T18:08:31.253Z,19.9
2023-01-29T18:16:01.346Z,17.12
2023-01-29T18:18:31.362Z,18.51
2023-01-29T18:21:01.406Z,21.48
2023-01-29T18:26:01.447Z,18.6
2023-01-29T18:28:31.477Z,18.76
2023-01-29T18:31:01.545Z,22.42
2023-01-29T18:41:01.580Z,20.89
2023-01-29T18:43:31.621Z,20.39
2023-01-29T18:48:31.639Z,21.71
2023-01-29T18:51:01.682Z,20.9
2023-01-29T18:56:01.704Z,20.46
2023-01-29T19:01:01.822Z,16.98
2023-01-29T19:06:01.831Z,20.67
2023-01-29T19:08:31.842Z,22.63
2023-01-29T19:18:31.952Z,18.34
2023-01-29T19:21:01.986Z,19.05
2023-01-29T19:23:32.009Z,19.39
2023-01-29T19:28:32.044Z,19.94
2023-01-29T19:38:32.117Z,18.25
2023-01-29T19:46:02.253Z,19.49
2023-01-29T19:48:32.231Z,19.73
2023-01-29T19:53:32.253Z,27.52
2023-01-29T20:03:32.355Z,20.68
2023-01-29T20:06:02.498Z,21.54
2023-01-29T20:13:32.468Z,20.38
2023-01-29T20:26:02.590Z,20.28
2023-01-29T20:31:02.632Z,20.94
2023-01-29T20:38:32.714Z,26.91
2023-01-29T20:41:02.748Z,24.21
2023-01-29T20:43:32.755Z,26.04
2023-01-29T20:46:02.815Z,26.36
2023-01-29T20:51:02.806Z,20.45
2023-01-29T20:53:32.875Z,23.73
2023-01-29T20:56:04.573Z,21.72
2023-01-29T20:58:32.896Z,19.13
2023-01-29T21:01:02.931Z,17.05
2023-01-29T21:03:32.924Z,26.91
2023-01-29T21:06:02.947Z,27.61
2023-01-29T21:08:32.996Z,24.37
2023-01-29T21:11:02.986Z,21.65
2023-01-29T21:13:33.016Z,15.02
2023-01-29T21:18:33.084Z,17.17
2023-01-29T21:21:03.100Z,21.89
2023-01-29T21:23:33.135Z,18.12
2023-01-29T21:26:03.165Z,17.81
2023-01-29T21:28:33.226Z,19.53
2023-01-29T21:31:03.200Z,19.82
2023-01-29T21:33:33.227Z,18.66
2023-01-29T21:36:03.263Z,25.28
2023-01-29T21:38:33.316Z,22.12
2023-01-29T21:41:03.292Z,20.78
2023-01-29T21:43:33.346Z,23.03
2023-01-29T21:46:03.408Z,24.82
2023-01-29T21:51:03.429Z,26.22
2023-01-29T21:53:33.385Z,20.01
2023-01-29T21:56:03.453Z,23.8
2023-01-29T21:58:33.441Z,25.4
2023-01-29T22:01:35.748Z,24.36
2023-01-29T22:03:33.481Z,26.69
2023-01-29T22:06:03.520Z,24.78
2023-01-29T22:08:33.548Z,27.44
2023-01-29T22:11:03.566Z,33.63
2023-01-29T22:13:33.579Z,27.63
2023-01-29T22:16:03.613Z,24.55
2023-01-29T22:18:33.657Z,20.41
2023-01-29T22:21:03.664Z,19.16
2023-01-29T22:23:33.721Z,18.98
2023-01-29T22:26:03.712Z,21.12
2023-01-29T22:28:33.875Z,19.54
2023-01-29T22:31:03.786Z,24.98
2023-01-29T22:33:33.823Z,23.72
2023-01-29T22:38:33.829Z,22.29
2023-01-29T22:41:03.878Z,21.16
2023-01-29T22:43:33.895Z,23.83
2023-01-29T22:46:03.957Z,30.22
2023-01-29T22:48:33.913Z,21.42
2023-01-29T22:51:03.944Z,22.21
2023-01-29T22:53:33.962Z,20.38
2023-01-29T22:58:34.010Z,25.62
2023-01-29T23:01:04.073Z,25.25
2023-01-29T23:03:34.051Z,29.82
2023-01-29T23:06:04.131Z,27.65
2023-01-29T23:08:34.137Z,24.15
2023-01-29T23:11:04.134Z,25.72
2023-01-29T23:16:04.300Z,21.29
2023-01-29T23:18:34.218Z,25.8
2023-01-29T23:21:04.205Z,25.14
2023-01-29T23:23:34.256Z,25.77
2023-01-29T23:28:34.311Z,32.59
2023-01-29T23:31:04.521Z,30.31
2023-01-29T23:36:04.373Z,23.38
2023-01-29T23:38:34.382Z,24.7
2023-01-29T23:41:04.423Z,24.95
2023-01-29T23:43:34.444Z,22
2023-01-29T23:46:04.502Z,21.34
2023-01-29T23:48:34.481Z,26.8
2023-01-29T23:51:04.506Z,29.19
2023-01-29T23:53:34.547Z,23.34
2023-01-29T23:58:34.590Z,26.83
